Flight Track Log - Related Links

Times and Time Zones

All times are in EDT time to prevent confusion due to time zone crossing. See the SKW6306 flight status page for this flight to view local times or setup timezone preferences in your user account.

Time Position Orientation Groundspeed Altitude Reporting Facility
EDT Latitude Longitude Course Direction KTS MPH feet Rate Location/Type
Thu 04:34:05 PM 52.1333 -106.6667 198° South 190 219 3,600  Level Winnipeg Center
Thu 04:36:00 PM 51.8656 -106.8643 199° South  Level FlightAware Approximate
Thu 04:36:05 PM 52.0167 -106.7167 195° South 230 265 8,100  Level Winnipeg Center
Thu 04:37:00 PM 51.7638 -106.9182 197° South  Level FlightAware Approximate
Thu 04:37:05 PM 51.9500 -106.7667 205° Southwest 270 311 10,400  Level Winnipeg Center
Thu 04:38:00 PM 51.6614 -106.9693 197° South  Level FlightAware Approximate
Thu 04:38:05 PM 51.8833 -106.8000 197° South 280 322 11,500  Level Winnipeg Center
Thu 04:39:00 PM 51.5607 -107.0211 198° South  Level FlightAware Approximate
Thu 04:39:05 PM 51.7833 -106.8667 202° Southwest 310 357 13,500  Level Winnipeg Center
Thu 04:40:05 PM 51.7000 -106.9000 194° South 320 368 15,200 1,700 Climbing Winnipeg Center
Thu 04:41:05 PM 51.6167 -106.9667 206° Southwest 330 380 16,900 1,500 Climbing Winnipeg Center
Thu 04:42:05 PM 51.5167 -107.0000 192° South 330 380 18,200 1,400 Climbing Winnipeg Center
Thu 04:43:05 PM 51.4333 -107.0500 201° Southwest 340 391 19,700 1,250 Climbing Winnipeg Center
Thu 04:44:05 PM 51.3500 -107.1167 207° Southwest 350 403 20,700 950 Climbing Winnipeg Center
Thu 04:45:05 PM 51.2500 -107.1833 203° Southwest 360 414 21,600 950 Climbing Winnipeg Center
Thu 04:46:05 PM 51.1500 -107.2333 197° South 370 426 22,600 1,000 Climbing Winnipeg Center
Thu 04:47:05 PM 51.0667 -107.2667 194° South 370 426 23,600 950 Climbing Winnipeg Center
Thu 04:48:05 PM 50.9500 -107.3167 195° South 370 426 24,500 900 Climbing Winnipeg Center
Thu 04:49:05 PM 50.8667 -107.3833 207° Southwest 380 437 25,400 700 Climbing Winnipeg Center
Thu 04:50:05 PM 50.7833 -107.4500 207° Southwest 380 437 25,900 450 Climbing Winnipeg Center
Thu 04:51:05 PM 50.6667 -107.5000 195° South 380 437 26,300 600 Climbing Winnipeg Center
Thu 04:52:05 PM 50.5667 -107.5500 198° South 390 449 27,100 1,000 Climbing Winnipeg Center
Thu 04:53:05 PM 50.4500 -107.6167 200° South 380 437 28,300 900 Climbing Winnipeg Center
Thu 04:54:05 PM 50.3667 -107.6667 201° Southwest 370 426 28,900 550 Climbing Winnipeg Center
Thu 04:55:05 PM 50.2667 -107.7167 198° South 370 426 29,400 400 Climbing Winnipeg Center
Thu 04:56:05 PM 50.1833 -107.7333 187° South 370 426 29,700 300 Climbing Winnipeg Center
Thu 04:57:05 PM 50.0500 -107.7500 185° South 370 426 30,000 200 Climbing Winnipeg Center
Thu 04:58:05 PM 49.9500 -107.7500 180° South 380 437 30,100 100 Climbing Winnipeg Center
Thu 04:59:05 PM 49.8500 -107.7667 186° South 390 449 30,200 300 Climbing Winnipeg Center
Thu 05:00:05 PM 49.7333 -107.7833 185° South 390 449 30,700 400 Climbing Winnipeg Center
Thu 05:01:05 PM 49.6333 -107.7833 180° South 390 449 31,000 300 Climbing Winnipeg Center
Thu 05:02:05 PM 49.5333 -107.8167 192° South 390 449 31,300 300 Climbing Winnipeg Center
Thu 05:03:05 PM 49.4333 -107.8167 180° South 390 449 31,600 350 Climbing Winnipeg Center
Thu 05:04:05 PM 49.3333 -107.8167 180° South 380 437 32,000 350 Climbing Winnipeg Center
Thu 05:05:05 PM 49.2000 -107.8500 189° South 380 437 32,300 400 Climbing Winnipeg Center
Thu 05:06:05 PM 49.1000 -107.8500 180° South 380 437 32,800 350 Climbing Winnipeg Center
Thu 05:07:05 PM 49.0167 -107.8500 180° South 370 426 33,000 100 Climbing Winnipeg Center
Thu 05:08:05 PM 48.9000 -107.8833 191° South 370 426 33,000  Level Winnipeg Center
Thu 05:09:05 PM 48.8000 -107.8833 180° South 370 426 33,000  Level Winnipeg Center
Thu 05:10:05 PM 48.7000 -107.9167 192° South 380 437 33,000  Level Winnipeg Center
Thu 05:10:35 PM 48.6794 -107.8747 127° Southeast 378 435 33,000  Level Salt Lake Center
Thu 05:11:37 PM 48.5517 -107.8889 184° South 382 440 33,000  Level Salt Lake Center
Thu 05:12:39 PM 48.4450 -107.9000 184° South 383 441 33,000  Level Salt Lake Center
Thu 05:13:41 PM 48.3378 -107.9119 184° South 386 444 33,000  Level Salt Lake Center
Thu 05:14:43 PM 48.2297 -107.9233 184° South 388 447 33,000  Level Salt Lake Center
Thu 05:15:45 PM 48.1231 -107.9353 184° South 387 445 33,000  Level Salt Lake Center
Thu 05:16:47 PM 48.0186 -107.9461 184° South 382 440 33,000  Level Salt Lake Center
Thu 05:17:49 PM 47.8914 -107.9594 184° South 383 441 33,000  Level Salt Lake Center
Thu 05:18:51 PM 47.7883 -107.9714 184° South 377 434 33,000 -48 Level Salt Lake Center
Thu 05:19:53 PM 47.6844 -107.9808 184° South 375 432 32,900  Descending Salt Lake Center
Thu 05:20:55 PM 47.5806 -107.9931 185° South 375 432 33,000 48 Climbing Salt Lake Center
Thu 05:21:57 PM 47.4742 -107.9950 181° South 378 435 33,000  Level Salt Lake Center
Thu 05:22:59 PM 47.3728 -107.9531 164° South 380 437 33,000  Level Salt Lake Center
Thu 05:24:01 PM 47.2458 -107.9075 166° South 385 443 33,000  Level Salt Lake Center
Thu 05:25:04 PM 47.1428 -107.8700 166° South 384 442 33,000  Level Salt Lake Center
Thu 05:26:06 PM 47.0514 -107.8350 165° South 381 438 33,000  Level Salt Lake Center
Thu 05:27:08 PM 46.9453 -107.7978 167° South 385 443 33,000  Level Salt Lake Center
Thu 05:28:10 PM 46.8181 -107.7514 166° South 391 450 33,000  Level Salt Lake Center
Thu 05:29:12 PM 46.7136 -107.7144 166° South 390 449 33,000  Level Salt Lake Center
Thu 05:30:14 PM 46.5997 -107.6706 165° South 390 449 33,000  Level Salt Lake Center
Thu 05:31:16 PM 46.4956 -107.6342 166° South 391 450 33,000  Level Salt Lake Center
Thu 05:32:18 PM 46.3814 -107.5936 166° South 395 455 33,000  Level Salt Lake Center
Thu 05:33:20 PM 46.2772 -107.5564 166° South 389 448 33,000  Level Salt Lake Center
Thu 05:34:22 PM 46.1644 -107.5172 166° South 389 448 33,000  Level Salt Lake Center
Thu 05:35:24 PM 46.0592 -107.4794 166° South 393 452 33,000  Level Salt Lake Center
Thu 05:36:26 PM 45.9453 -107.4394 166° South 391 450 33,000  Level Salt Lake Center
Thu 05:37:28 PM 45.8383 -107.4017 166° South 396 456 33,000  Level Salt Lake Center
Thu 05:38:30 PM 45.7250 -107.3625 166° South 393 452 33,000  Level Salt Lake Center
Thu 05:39:32 PM 45.6083 -107.3231 167° South 400 460 33,000  Level Salt Lake Center
Thu 05:40:34 PM 45.5028 -107.2864 166° South 395 455 33,000  Level Salt Lake Center
Thu 05:41:36 PM 45.3878 -107.2481 167° South 397 457 33,000  Level Salt Lake Center
Thu 05:42:38 PM 45.2914 -107.2161 167° South 390 449 33,000  Level Salt Lake Center
Thu 05:43:40 PM 45.1753 -107.1753 166° South 390 449 33,000  Level Salt Lake Center
Thu 05:44:43 PM 45.0742 -107.1408 166° South 390 449 33,000  Level Salt Lake Center
Thu 05:45:44 PM 44.9558 -107.1017 167° South 391 450 33,000  Level Salt Lake Center
Thu 05:46:46 PM 44.8567 -107.0683 167° South 385 443 33,000  Level Salt Lake Center
Thu 05:47:48 PM 44.7397 -107.0372 169° South 383 441 33,000  Level Salt Lake Center
Thu 05:48:50 PM 44.6403 -107.0117 170° South 380 437 33,000  Level Salt Lake Center
Thu 05:49:52 PM 44.5244 -106.9825 170° South 379 436 33,000  Level Salt Lake Center
Thu 05:50:54 PM 44.4250 -106.9578 170° South 380 437 33,000  Level Salt Lake Center
Thu 05:51:56 PM 44.3247 -106.9311 169° South 383 441 33,000  Level Salt Lake Center
Thu 05:52:58 PM 44.2064 -106.9003 169° South 385 443 33,000  Level Salt Lake Center
Thu 05:54:00 PM 44.1050 -106.8747 170° South 386 444 33,000  Level Salt Lake Center
Thu 05:55:03 PM 43.9856 -106.8456 170° South 388 447 33,000  Level Salt Lake Center
Thu 05:56:05 PM 43.8853 -106.8200 170° South 386 444 33,000  Level Salt Lake Center
Thu 05:57:07 PM 43.7664 -106.7914 170° South 387 445 33,000  Level Salt Lake Center
Thu 05:58:09 PM 43.6650 -106.7681 171° South 386 444 33,000  Level Salt Lake Center
Thu 05:59:11 PM 43.5469 -106.7394 170° South 387 445 33,000  Level Salt Lake Center
Thu 06:00:13 PM 43.4447 -106.7139 170° South 387 445 33,000  Level Salt Lake Center
Thu 06:01:15 PM 43.3247 -106.6844 170° South 390 449 33,000  Level Salt Lake Center
Thu 06:02:17 PM 43.2217 -106.6600 170° South 391 450 33,000  Level Salt Lake Center
Thu 06:03:19 PM 43.1014 -106.6322 170° South 393 452 33,000  Level Salt Lake Center
Thu 06:04:21 PM 42.9964 -106.6067 170° South 396 456 33,000  Level Salt Lake Center
Thu 06:05:23 PM 42.8753 -106.5778 170° South 396 456 33,000  Level Salt Lake Center
Thu 06:06:25 PM 42.7711 -106.5531 170° South 397 457 33,000  Level Salt Lake Center
Thu 06:07:27 PM 42.6497 -106.5244 170° South 397 457 33,000  Level Salt Lake Center
Thu 06:08:29 PM 42.5444 -106.4994 170° South 401 461 33,000  Level Salt Lake Center
Thu 06:09:53 PM 42.3814 -106.4608 170° South 404 465 33,000  Level Denver Center
Thu 06:10:55 PM 42.2758 -106.4350 170° South 405 466 33,000  Level Denver Center
Thu 06:11:57 PM 42.1497 -106.4058 170° South 409 471 33,000  Level Denver Center
Thu 06:12:59 PM 42.0447 -106.3819 170° South 403 464 33,000  Level Denver Center
Thu 06:14:01 PM 41.9181 -106.3511 170° South 412 474 33,000  Level Denver Center
Thu 06:15:03 PM 41.8117 -106.3278 171° South 408 470 33,000  Level Denver Center
Thu 06:16:05 PM 41.6839 -106.2978 170° South 415 478 33,000 -339 Level Denver Center
Thu 06:17:07 PM 41.5756 -106.2725 170° South 413 475 32,300 -1,258 Descending Denver Center
Thu 06:18:09 PM 41.4464 -106.2400 169° South 421 484 30,400 -1,645 Descending Denver Center
Thu 06:19:11 PM 41.3394 -106.1944 162° South 422 486 28,900 -1,597 Descending Denver Center
Thu 06:20:13 PM 41.2156 -106.1417 162° South 420 483 27,100 -919 Descending Denver Center
Thu 06:21:15 PM 41.1122 -106.0953 161° South 413 475 27,000 -64 Descending Denver Center
Thu 06:23:20 PM 40.8981 -105.9706 156° South 416 479 26,900 -513 Descending Denver Center
Thu 06:24:22 PM 40.8250 -105.8419 127° Southeast 438 504 25,400 -1,452 Descending Denver Center
Thu 06:25:24 PM 40.7564 -105.7136 125° Southeast 429 494 23,900 -1,597 Descending Denver Center
Thu 06:26:26 PM 40.6778 -105.5772 127° Southeast 390 449 22,100 -1,597 Descending Denver Center
Thu 06:27:28 PM 40.6119 -105.4564 126° Southeast 402 463 20,600 -1,452 Descending Denver Center
Thu 06:28:30 PM 40.5483 -105.3400 126° Southeast 394 453 19,100 -1,355 Descending Denver Center
Thu 06:29:32 PM 40.4906 -105.2289 124° Southeast 372 428 17,800 -1,306 Descending Denver Center
Thu 06:30:34 PM 40.4519 -105.0897 110° East 371 427 16,400 -1,306 Descending Denver Center
Thu 06:31:36 PM 40.4139 -104.9611 111° Southeast 354 407 15,100 -1,210 Descending Denver Center
Thu 06:32:38 PM 40.3444 -104.8906 142° Southeast 325 374 13,900 -1,210 Descending Denver Center
Thu 06:33:40 PM 40.2692 -104.8497 158° South 295 339 12,600 -1,839 Descending Denver Center
Thu 06:34:42 PM 40.1889 -104.8064 158° South 292 336 10,100 -2,323 Descending Denver Center
Thu 06:35:44 PM 40.1142 -104.7661 158° South 291 335 7,800 -2,226 Descending Denver Center

Login

Don't have an account? Register now (free) for customized features, flight alerts, and more!